sensor_id;sensor_type;location;lat;lon;timestamp;P1;durP1;ratioP1;P2;durP2;ratioP2
13592;SDS011;6867;50.998;4.250;2023-05-07T00:01:34;8.95;;;4.95;;
13592;SDS011;6867;50.998;4.250;2023-05-07T00:04:01;7.78;;;5.53;;
13592;SDS011;6867;50.998;4.250;2023-05-07T00:06:29;9.57;;;6.03;;
13592;SDS011;6867;50.998;4.250;2023-05-07T00:08:56;8.82;;;5.40;;
13592;SDS011;6867;50.998;4.250;2023-05-07T00:11:23;9.10;;;6.55;;
13592;SDS011;6867;50.998;4.250;2023-05-07T00:13:50;10.65;;;6.80;;
13592;SDS011;6867;50.998;4.250;2023-05-07T00:16:17;12.00;;;7.20;;
13592;SDS011;6867;50.998;4.250;2023-05-07T00:18:44;11.98;;;6.95;;
13592;SDS011;6867;50.998;4.250;2023-05-07T00:21:11;9.57;;;6.65;;
13592;SDS011;6867;50.998;4.250;2023-05-07T00:23:39;11.88;;;7.40;;
13592;SDS011;6867;50.998;4.250;2023-05-07T00:26:06;9.98;;;6.35;;
13592;SDS011;6867;50.998;4.250;2023-05-07T00:28:32;10.68;;;6.68;;
13592;SDS011;6867;50.998;4.250;2023-05-07T00:30:59;10.23;;;7.07;;
13592;SDS011;6867;50.998;4.250;2023-05-07T00:33:26;11.63;;;6.72;;
13592;SDS011;6867;50.998;4.250;2023-05-07T00:35:52;10.00;;;7.10;;
13592;SDS011;6867;50.998;4.250;2023-05-07T00:38:20;11.73;;;6.85;;
13592;SDS011;6867;50.998;4.250;2023-05-07T00:40:48;13.00;;;6.00;;
13592;SDS011;6867;50.998;4.250;2023-05-07T00:43:15;12.05;;;7.25;;
13592;SDS011;6867;50.998;4.250;2023-05-07T00:45:42;10.02;;;6.75;;
13592;SDS011;6867;50.998;4.250;2023-05-07T00:48:09;12.38;;;6.47;;
13592;SDS011;6867;50.998;4.250;2023-05-07T00:50:36;11.48;;;6.32;;
13592;SDS011;6867;50.998;4.250;2023-05-07T00:53:02;9.57;;;6.80;;
13592;SDS011;6867;50.998;4.250;2023-05-07T00:55:30;8.80;;;6.30;;
13592;SDS011;6867;50.998;4.250;2023-05-07T00:57:58;7.95;;;6.40;;
13592;SDS011;6867;50.998;4.250;2023-05-07T01:00:25;10.00;;;7.28;;
13592;SDS011;6867;50.998;4.250;2023-05-07T01:02:52;8.75;;;6.45;;
13592;SDS011;6867;50.998;4.250;2023-05-07T01:05:19;7.22;;;6.47;;
13592;SDS011;6867;50.998;4.250;2023-05-07T01:07:48;11.63;;;6.97;;
13592;SDS011;6867;50.998;4.250;2023-05-07T01:10:18;13.00;;;6.93;;
13592;SDS011;6867;50.998;4.250;2023-05-07T01:12:45;11.15;;;5.90;;
13592;SDS011;6867;50.998;4.250;2023-05-07T01:15:15;11.35;;;6.60;;
13592;SDS011;6867;50.998;4.250;2023-05-07T01:17:42;10.85;;;6.38;;
13592;SDS011;6867;50.998;4.250;2023-05-07T01:20:10;8.45;;;6.30;;
13592;SDS011;6867;50.998;4.250;2023-05-07T01:22:39;10.32;;;6.57;;
13592;SDS011;6867;50.998;4.250;2023-05-07T01:25:06;11.85;;;7.05;;
13592;SDS011;6867;50.998;4.250;2023-05-07T01:27:34;7.20;;;5.22;;
13592;SDS011;6867;50.998;4.250;2023-05-07T01:30:02;8.88;;;6.35;;
13592;SDS011;6867;50.998;4.250;2023-05-07T01:32:32;8.95;;;5.97;;
13592;SDS011;6867;50.998;4.250;2023-05-07T01:35:02;8.43;;;6.43;;
13592;SDS011;6867;50.998;4.250;2023-05-07T01:37:31;7.57;;;5.82;;
13592;SDS011;6867;50.998;4.250;2023-05-07T01:40:00;8.68;;;6.25;;
13592;SDS011;6867;50.998;4.250;2023-05-07T01:42:27;7.97;;;6.25;;
13592;SDS011;6867;50.998;4.250;2023-05-07T01:44:55;9.40;;;6.13;;
13592;SDS011;6867;50.998;4.250;2023-05-07T01:47:22;9.30;;;5.85;;
13592;SDS011;6867;50.998;4.250;2023-05-07T01:49:49;7.05;;;5.75;;
13592;SDS011;6867;50.998;4.250;2023-05-07T01:52:16;7.47;;;6.05;;
13592;SDS011;6867;50.998;4.250;2023-05-07T01:54:43;6.65;;;5.72;;
13592;SDS011;6867;50.998;4.250;2023-05-07T01:57:11;7.13;;;5.85;;
13592;SDS011;6867;50.998;4.250;2023-05-07T01:59:38;8.93;;;6.60;;
13592;SDS011;6867;50.998;4.250;2023-05-07T02:02:05;8.30;;;6.40;;
13592;SDS011;6867;50.998;4.250;2023-05-07T02:04:31;9.98;;;6.20;;
13592;SDS011;6867;50.998;4.250;2023-05-07T02:06:58;7.45;;;6.03;;
13592;SDS011;6867;50.998;4.250;2023-05-07T02:09:25;7.00;;;4.93;;
13592;SDS011;6867;50.998;4.250;2023-05-07T02:11:51;8.77;;;5.65;;
13592;SDS011;6867;50.998;4.250;2023-05-07T02:14:19;6.88;;;5.28;;
13592;SDS011;6867;50.998;4.250;2023-05-07T02:16:46;9.50;;;6.53;;
13592;SDS011;6867;50.998;4.250;2023-05-07T02:19:13;8.27;;;6.85;;
13592;SDS011;6867;50.998;4.250;2023-05-07T02:21:39;9.85;;;6.35;;
13592;SDS011;6867;50.998;4.250;2023-05-07T02:24:06;8.13;;;6.85;;
13592;SDS011;6867;50.998;4.250;2023-05-07T02:26:33;8.50;;;7.00;;
13592;SDS011;6867;50.998;4.250;2023-05-07T02:29:00;9.38;;;7.22;;
13592;SDS011;6867;50.998;4.250;2023-05-07T02:31:28;12.65;;;8.05;;
13592;SDS011;6867;50.998;4.250;2023-05-07T02:33:55;14.13;;;8.65;;
13592;SDS011;6867;50.998;4.250;2023-05-07T02:36:21;13.55;;;8.07;;
13592;SDS011;6867;50.998;4.250;2023-05-07T02:38:48;9.75;;;7.72;;
13592;SDS011;6867;50.998;4.250;2023-05-07T02:41:15;11.02;;;6.78;;
13592;SDS011;6867;50.998;4.250;2023-05-07T02:43:41;10.10;;;6.32;;
13592;SDS011;6867;50.998;4.250;2023-05-07T02:46:08;9.95;;;7.13;;
13592;SDS011;6867;50.998;4.250;2023-05-07T02:48:37;9.60;;;7.35;;
13592;SDS011;6867;50.998;4.250;2023-05-07T02:51:04;8.57;;;7.22;;
13592;SDS011;6867;50.998;4.250;2023-05-07T02:53:31;9.77;;;7.82;;
13592;SDS011;6867;50.998;4.250;2023-05-07T02:55:58;9.55;;;7.32;;
13592;SDS011;6867;50.998;4.250;2023-05-07T02:58:26;8.82;;;7.15;;
13592;SDS011;6867;50.998;4.250;2023-05-07T03:00:53;10.38;;;6.70;;
13592;SDS011;6867;50.998;4.250;2023-05-07T03:03:20;10.13;;;7.70;;
13592;SDS011;6867;50.998;4.250;2023-05-07T03:05:48;10.70;;;6.80;;
13592;SDS011;6867;50.998;4.250;2023-05-07T03:08:15;10.13;;;7.38;;
13592;SDS011;6867;50.998;4.250;2023-05-07T03:10:42;10.85;;;8.15;;
13592;SDS011;6867;50.998;4.250;2023-05-07T03:13:09;12.25;;;7.43;;
13592;SDS011;6867;50.998;4.250;2023-05-07T03:15:35;9.35;;;7.47;;
13592;SDS011;6867;50.998;4.250;2023-05-07T03:18:02;11.38;;;8.25;;
13592;SDS011;6867;50.998;4.250;2023-05-07T03:20:29;11.10;;;8.18;;
13592;SDS011;6867;50.998;4.250;2023-05-07T03:22:57;11.80;;;8.10;;
13592;SDS011;6867;50.998;4.250;2023-05-07T03:25:24;7.88;;;7.07;;
13592;SDS011;6867;50.998;4.250;2023-05-07T03:27:51;10.25;;;7.53;;
13592;SDS011;6867;50.998;4.250;2023-05-07T03:30:17;10.27;;;7.30;;
13592;SDS011;6867;50.998;4.250;2023-05-07T03:32:45;13.45;;;8.18;;
13592;SDS011;6867;50.998;4.250;2023-05-07T03:35:11;15.25;;;7.95;;
13592;SDS011;6867;50.998;4.250;2023-05-07T03:37:38;11.68;;;8.43;;
13592;SDS011;6867;50.998;4.250;2023-05-07T03:40:07;9.93;;;8.05;;
13592;SDS011;6867;50.998;4.250;2023-05-07T03:42:37;8.90;;;6.85;;
13592;SDS011;6867;50.998;4.250;2023-05-07T03:45:04;9.20;;;6.95;;
13592;SDS011;6867;50.998;4.250;2023-05-07T03:47:31;8.95;;;7.38;;
13592;SDS011;6867;50.998;4.250;2023-05-07T03:49:58;9.70;;;7.93;;
13592;SDS011;6867;50.998;4.250;2023-05-07T03:52:24;11.88;;;7.68;;
13592;SDS011;6867;50.998;4.250;2023-05-07T03:54:51;10.30;;;8.68;;
13592;SDS011;6867;50.998;4.250;2023-05-07T03:57:19;9.05;;;8.15;;
13592;SDS011;6867;50.998;4.250;2023-05-07T03:59:46;10.43;;;8.48;;
13592;SDS011;6867;50.998;4.250;2023-05-07T04:02:13;10.57;;;9.30;;
13592;SDS011;6867;50.998;4.250;2023-05-07T04:04:40;11.90;;;9.35;;
13592;SDS011;6867;50.998;4.250;2023-05-07T04:07:07;9.38;;;7.70;;
13592;SDS011;6867;50.998;4.250;2023-05-07T04:09:33;11.07;;;8.65;;
13592;SDS011;6867;50.998;4.250;2023-05-07T04:12:00;9.75;;;8.63;;
13592;SDS011;6867;50.998;4.250;2023-05-07T04:14:28;12.30;;;9.57;;
13592;SDS011;6867;50.998;4.250;2023-05-07T04:16:57;11.80;;;9.80;;
13592;SDS011;6867;50.998;4.250;2023-05-07T04:19:24;12.57;;;10.13;;
13592;SDS011;6867;50.998;4.250;2023-05-07T04:21:50;14.23;;;9.93;;
13592;SDS011;6867;50.998;4.250;2023-05-07T04:24:17;12.90;;;10.48;;
13592;SDS011;6867;50.998;4.250;2023-05-07T04:26:43;14.32;;;10.85;;
13592;SDS011;6867;50.998;4.250;2023-05-07T04:29:10;11.07;;;9.43;;
13592;SDS011;6867;50.998;4.250;2023-05-07T04:31:39;15.75;;;10.68;;
13592;SDS011;6867;50.998;4.250;2023-05-07T04:34:05;12.48;;;10.20;;
13592;SDS011;6867;50.998;4.250;2023-05-07T04:36:32;13.73;;;9.98;;
13592;SDS011;6867;50.998;4.250;2023-05-07T04:38:59;15.38;;;10.10;;
13592;SDS011;6867;50.998;4.250;2023-05-07T04:41:25;17.10;;;11.30;;
13592;SDS011;6867;50.998;4.250;2023-05-07T04:43:52;15.38;;;9.95;;
13592;SDS011;6867;50.998;4.250;2023-05-07T04:46:19;10.90;;;9.70;;
13592;SDS011;6867;50.998;4.250;2023-05-07T04:48:47;12.60;;;9.88;;
13592;SDS011;6867;50.998;4.250;2023-05-07T04:51:13;14.90;;;10.30;;
13592;SDS011;6867;50.998;4.250;2023-05-07T04:53:40;12.63;;;10.57;;
13592;SDS011;6867;50.998;4.250;2023-05-07T04:56:08;13.45;;;8.63;;
13592;SDS011;6867;50.998;4.250;2023-05-07T04:58:35;12.25;;;9.45;;
13592;SDS011;6867;50.998;4.250;2023-05-07T05:01:01;13.80;;;9.48;;
13592;SDS011;6867;50.998;4.250;2023-05-07T05:03:28;14.35;;;10.57;;
13592;SDS011;6867;50.998;4.250;2023-05-07T05:05:56;15.30;;;10.07;;
13592;SDS011;6867;50.998;4.250;2023-05-07T05:08:24;14.07;;;10.18;;
13592;SDS011;6867;50.998;4.250;2023-05-07T05:10:51;11.23;;;9.00;;
13592;SDS011;6867;50.998;4.250;2023-05-07T05:13:17;13.38;;;10.00;;
13592;SDS011;6867;50.998;4.250;2023-05-07T05:15:44;13.80;;;10.90;;
13592;SDS011;6867;50.998;4.250;2023-05-07T05:18:11;13.10;;;9.73;;
13592;SDS011;6867;50.998;4.250;2023-05-07T05:20:38;12.45;;;10.52;;
13592;SDS011;6867;50.998;4.250;2023-05-07T05:23:07;13.40;;;9.27;;
13592;SDS011;6867;50.998;4.250;2023-05-07T05:25:33;13.25;;;10.13;;
13592;SDS011;6867;50.998;4.250;2023-05-07T05:28:00;10.93;;;9.32;;
13592;SDS011;6867;50.998;4.250;2023-05-07T05:30:27;11.43;;;9.50;;
13592;SDS011;6867;50.998;4.250;2023-05-07T05:32:54;13.88;;;9.80;;
13592;SDS011;6867;50.998;4.250;2023-05-07T05:35:21;14.43;;;10.45;;
13592;SDS011;6867;50.998;4.250;2023-05-07T05:37:47;14.20;;;9.60;;
13592;SDS011;6867;50.998;4.250;2023-05-07T05:40:15;12.50;;;10.65;;
13592;SDS011;6867;50.998;4.250;2023-05-07T05:42:42;16.00;;;10.63;;
13592;SDS011;6867;50.998;4.250;2023-05-07T05:45:09;12.20;;;10.90;;
13592;SDS011;6867;50.998;4.250;2023-05-07T05:47:36;12.15;;;10.05;;
13592;SDS011;6867;50.998;4.250;2023-05-07T05:50:04;11.23;;;10.00;;
13592;SDS011;6867;50.998;4.250;2023-05-07T05:52:32;16.88;;;10.55;;
13592;SDS011;6867;50.998;4.250;2023-05-07T05:54:58;10.85;;;9.50;;
13592;SDS011;6867;50.998;4.250;2023-05-07T05:57:26;12.50;;;10.32;;
13592;SDS011;6867;50.998;4.250;2023-05-07T05:59:53;13.63;;;10.45;;
13592;SDS011;6867;50.998;4.250;2023-05-07T06:02:20;14.02;;;11.23;;
13592;SDS011;6867;50.998;4.250;2023-05-07T06:04:47;12.00;;;10.65;;
13592;SDS011;6867;50.998;4.250;2023-05-07T06:07:13;10.57;;;9.30;;
13592;SDS011;6867;50.998;4.250;2023-05-07T06:09:40;13.10;;;10.73;;
13592;SDS011;6867;50.998;4.250;2023-05-07T06:12:07;13.48;;;11.30;;
13592;SDS011;6867;50.998;4.250;2023-05-07T06:14:35;14.40;;;10.95;;
13592;SDS011;6867;50.998;4.250;2023-05-07T06:17:01;12.75;;;10.63;;
13592;SDS011;6867;50.998;4.250;2023-05-07T06:19:28;12.05;;;10.10;;
13592;SDS011;6867;50.998;4.250;2023-05-07T06:21:55;12.38;;;10.45;;
13592;SDS011;6867;50.998;4.250;2023-05-07T06:24:22;15.73;;;9.93;;
13592;SDS011;6867;50.998;4.250;2023-05-07T06:26:49;13.50;;;11.13;;
13592;SDS011;6867;50.998;4.250;2023-05-07T06:29:16;11.57;;;9.77;;
13592;SDS011;6867;50.998;4.250;2023-05-07T06:31:44;12.32;;;9.75;;
13592;SDS011;6867;50.998;4.250;2023-05-07T06:34:11;13.88;;;9.70;;
13592;SDS011;6867;50.998;4.250;2023-05-07T06:36:39;11.68;;;8.75;;
13592;SDS011;6867;50.998;4.250;2023-05-07T06:39:06;10.70;;;8.63;;
13592;SDS011;6867;50.998;4.250;2023-05-07T06:41:33;12.57;;;9.55;;
13592;SDS011;6867;50.998;4.250;2023-05-07T06:44:00;22.23;;;9.40;;
13592;SDS011;6867;50.998;4.250;2023-05-07T06:46:27;9.80;;;8.18;;
13592;SDS011;6867;50.998;4.250;2023-05-07T06:48:55;10.60;;;9.10;;
13592;SDS011;6867;50.998;4.250;2023-05-07T06:51:22;15.32;;;8.77;;
13592;SDS011;6867;50.998;4.250;2023-05-07T06:53:49;12.00;;;8.68;;
13592;SDS011;6867;50.998;4.250;2023-05-07T06:56:16;12.70;;;8.30;;
13592;SDS011;6867;50.998;4.250;2023-05-07T06:58:42;12.25;;;9.00;;
13592;SDS011;6867;50.998;4.250;2023-05-07T07:01:09;14.70;;;8.55;;
13592;SDS011;6867;50.998;4.250;2023-05-07T07:03:36;10.85;;;8.15;;
13592;SDS011;6867;50.998;4.250;2023-05-07T07:06:04;12.00;;;8.40;;
13592;SDS011;6867;50.998;4.250;2023-05-07T07:08:31;10.07;;;8.32;;
13592;SDS011;6867;50.998;4.250;2023-05-07T07:10:58;13.75;;;8.15;;
13592;SDS011;6867;50.998;4.250;2023-05-07T07:13:24;13.90;;;8.30;;
13592;SDS011;6867;50.998;4.250;2023-05-07T07:15:51;14.52;;;8.57;;
13592;SDS011;6867;50.998;4.250;2023-05-07T07:18:18;12.90;;;8.35;;
13592;SDS011;6867;50.998;4.250;2023-05-07T07:20:45;10.57;;;7.80;;
13592;SDS011;6867;50.998;4.250;2023-05-07T07:23:13;14.07;;;8.50;;
13592;SDS011;6867;50.998;4.250;2023-05-07T07:25:40;17.10;;;7.88;;
13592;SDS011;6867;50.998;4.250;2023-05-07T07:28:07;12.95;;;7.95;;
13592;SDS011;6867;50.998;4.250;2023-05-07T07:30:35;10.48;;;7.28;;
13592;SDS011;6867;50.998;4.250;2023-05-07T07:33:02;10.73;;;7.15;;
13592;SDS011;6867;50.998;4.250;2023-05-07T07:35:30;15.70;;;7.70;;
13592;SDS011;6867;50.998;4.250;2023-05-07T07:37:56;11.27;;;7.07;;
13592;SDS011;6867;50.998;4.250;2023-05-07T07:40:25;12.07;;;7.25;;
13592;SDS011;6867;50.998;4.250;2023-05-07T07:42:52;11.98;;;7.60;;
13592;SDS011;6867;50.998;4.250;2023-05-07T07:45:19;10.07;;;7.60;;
13592;SDS011;6867;50.998;4.250;2023-05-07T07:47:46;12.23;;;8.18;;
13592;SDS011;6867;50.998;4.250;2023-05-07T07:50:13;9.77;;;7.65;;
13592;SDS011;6867;50.998;4.250;2023-05-07T07:52:40;12.95;;;7.55;;
13592;SDS011;6867;50.998;4.250;2023-05-07T07:55:07;9.32;;;7.20;;
13592;SDS011;6867;50.998;4.250;2023-05-07T07:57:36;13.35;;;7.30;;
13592;SDS011;6867;50.998;4.250;2023-05-07T08:00:03;15.15;;;8.25;;
13592;SDS011;6867;50.998;4.250;2023-05-07T08:02:32;13.20;;;7.82;;
13592;SDS011;6867;50.998;4.250;2023-05-07T08:04:58;12.40;;;7.13;;
13592;SDS011;6867;50.998;4.250;2023-05-07T08:07:25;10.00;;;6.97;;
13592;SDS011;6867;50.998;4.250;2023-05-07T08:09:52;9.30;;;6.88;;
13592;SDS011;6867;50.998;4.250;2023-05-07T08:12:18;13.30;;;7.18;;
13592;SDS011;6867;50.998;4.250;2023-05-07T08:14:46;11.57;;;6.88;;
13592;SDS011;6867;50.998;4.250;2023-05-07T08:17:13;10.13;;;6.05;;
13592;SDS011;6867;50.998;4.250;2023-05-07T08:19:41;11.45;;;6.53;;
13592;SDS011;6867;50.998;4.250;2023-05-07T08:22:07;9.95;;;6.03;;
13592;SDS011;6867;50.998;4.250;2023-05-07T08:24:34;7.85;;;5.55;;
13592;SDS011;6867;50.998;4.250;2023-05-07T08:27:01;8.93;;;5.60;;
13592;SDS011;6867;50.998;4.250;2023-05-07T08:29:27;9.13;;;5.40;;
13592;SDS011;6867;50.998;4.250;2023-05-07T08:31:56;7.32;;;5.40;;
13592;SDS011;6867;50.998;4.250;2023-05-07T08:34:22;10.43;;;5.18;;
13592;SDS011;6867;50.998;4.250;2023-05-07T08:36:49;5.75;;;4.72;;
13592;SDS011;6867;50.998;4.250;2023-05-07T08:39:16;8.68;;;5.60;;
13592;SDS011;6867;50.998;4.250;2023-05-07T08:41:43;11.63;;;6.28;;
13592;SDS011;6867;50.998;4.250;2023-05-07T08:44:11;9.35;;;5.18;;
13592;SDS011;6867;50.998;4.250;2023-05-07T08:46:39;8.93;;;6.07;;
13592;SDS011;6867;50.998;4.250;2023-05-07T08:49:09;6.78;;;5.30;;
13592;SDS011;6867;50.998;4.250;2023-05-07T08:51:36;11.18;;;5.97;;
13592;SDS011;6867;50.998;4.250;2023-05-07T08:54:04;8.60;;;6.10;;
13592;SDS011;6867;50.998;4.250;2023-05-07T08:56:32;11.10;;;6.40;;
13592;SDS011;6867;50.998;4.250;2023-05-07T08:58:59;8.15;;;5.80;;
13592;SDS011;6867;50.998;4.250;2023-05-07T09:01:25;9.88;;;5.63;;
13592;SDS011;6867;50.998;4.250;2023-05-07T09:03:52;13.50;;;6.03;;
13592;SDS011;6867;50.998;4.250;2023-05-07T09:06:21;8.00;;;5.85;;
13592;SDS011;6867;50.998;4.250;2023-05-07T09:08:51;11.68;;;5.63;;
13592;SDS011;6867;50.998;4.250;2023-05-07T09:11:21;7.43;;;5.82;;
13592;SDS011;6867;50.998;4.250;2023-05-07T09:13:48;7.03;;;5.80;;
13592;SDS011;6867;50.998;4.250;2023-05-07T09:16:20;11.40;;;5.88;;
13592;SDS011;6867;50.998;4.250;2023-05-07T09:18:48;9.85;;;6.20;;
13592;SDS011;6867;50.998;4.250;2023-05-07T09:21:18;8.63;;;5.88;;
13592;SDS011;6867;50.998;4.250;2023-05-07T09:23:49;9.88;;;6.05;;
13592;SDS011;6867;50.998;4.250;2023-05-07T09:26:17;7.57;;;6.30;;
13592;SDS011;6867;50.998;4.250;2023-05-07T09:28:44;10.50;;;6.30;;
13592;SDS011;6867;50.998;4.250;2023-05-07T09:31:11;9.82;;;6.38;;
13592;SDS011;6867;50.998;4.250;2023-05-07T09:33:38;8.07;;;6.25;;
13592;SDS011;6867;50.998;4.250;2023-05-07T09:36:06;9.73;;;5.82;;
13592;SDS011;6867;50.998;4.250;2023-05-07T09:38:34;10.43;;;7.07;;
13592;SDS011;6867;50.998;4.250;2023-05-07T09:41:04;10.23;;;6.80;;
13592;SDS011;6867;50.998;4.250;2023-05-07T09:43:32;8.57;;;5.88;;
13592;SDS011;6867;50.998;4.250;2023-05-07T09:46:00;10.88;;;5.20;;
13592;SDS011;6867;50.998;4.250;2023-05-07T09:48:29;8.88;;;5.70;;
13592;SDS011;6867;50.998;4.250;2023-05-07T09:50:56;10.00;;;5.82;;
13592;SDS011;6867;50.998;4.250;2023-05-07T09:53:28;6.38;;;4.78;;
13592;SDS011;6867;50.998;4.250;2023-05-07T09:55:56;12.30;;;5.28;;
13592;SDS011;6867;50.998;4.250;2023-05-07T09:58:26;7.75;;;4.97;;
13592;SDS011;6867;50.998;4.250;2023-05-07T10:00:54;8.07;;;5.28;;
13592;SDS011;6867;50.998;4.250;2023-05-07T10:03:22;7.20;;;5.03;;
13592;SDS011;6867;50.998;4.250;2023-05-07T10:05:53;9.18;;;5.70;;
13592;SDS011;6867;50.998;4.250;2023-05-07T10:08:21;9.45;;;5.78;;
13592;SDS011;6867;50.998;4.250;2023-05-07T10:10:47;9.73;;;5.43;;
13592;SDS011;6867;50.998;4.250;2023-05-07T10:13:16;9.40;;;5.75;;
13592;SDS011;6867;50.998;4.250;2023-05-07T10:15:46;11.02;;;5.78;;
13592;SDS011;6867;50.998;4.250;2023-05-07T10:18:13;7.15;;;5.05;;
13592;SDS011;6867;50.998;4.250;2023-05-07T10:20:41;9.32;;;6.30;;
13592;SDS011;6867;50.998;4.250;2023-05-07T10:23:13;10.80;;;5.93;;
13592;SDS011;6867;50.998;4.250;2023-05-07T10:25:44;6.63;;;5.40;;
13592;SDS011;6867;50.998;4.250;2023-05-07T10:28:11;6.18;;;5.07;;
13592;SDS011;6867;50.998;4.250;2023-05-07T10:30:47;6.22;;;4.53;;
13592;SDS011;6867;50.998;4.250;2023-05-07T10:33:26;7.60;;;4.47;;
13592;SDS011;6867;50.998;4.250;2023-05-07T10:35:55;5.95;;;3.80;;
13592;SDS011;6867;50.998;4.250;2023-05-07T10:38:25;4.72;;;3.47;;
13592;SDS011;6867;50.998;4.250;2023-05-07T10:40:53;5.57;;;3.75;;
13592;SDS011;6867;50.998;4.250;2023-05-07T10:43:20;6.07;;;3.50;;
13592;SDS011;6867;50.998;4.250;2023-05-07T10:51:36;4.25;;;2.58;;
13592;SDS011;6867;50.998;4.250;2023-05-07T10:54:19;4.07;;;2.83;;
13592;SDS011;6867;50.998;4.250;2023-05-07T10:56:46;5.57;;;3.22;;
13592;SDS011;6867;50.998;4.250;2023-05-07T10:59:34;4.10;;;3.40;;
13592;SDS011;6867;50.998;4.250;2023-05-07T11:02:08;4.63;;;3.28;;
13592;SDS011;6867;50.998;4.250;2023-05-07T11:04:36;6.68;;;3.65;;
13592;SDS011;6867;50.998;4.250;2023-05-07T11:09:58;6.72;;;3.95;;
13592;SDS011;6867;50.998;4.250;2023-05-07T11:12:48;6.22;;;3.90;;
13592;SDS011;6867;50.998;4.250;2023-05-07T11:15:34;7.88;;;4.13;;
13592;SDS011;6867;50.998;4.250;2023-05-07T11:18:04;6.45;;;4.88;;
13592;SDS011;6867;50.998;4.250;2023-05-07T11:20:47;6.75;;;3.83;;
13592;SDS011;6867;50.998;4.250;2023-05-07T11:26:27;7.57;;;4.72;;
13592;SDS011;6867;50.998;4.250;2023-05-07T11:28:55;5.88;;;4.18;;
13592;SDS011;6867;50.998;4.250;2023-05-07T11:31:22;5.60;;;3.90;;
13592;SDS011;6867;50.998;4.250;2023-05-07T11:33:53;4.75;;;3.75;;
13592;SDS011;6867;50.998;4.250;2023-05-07T11:36:20;6.45;;;3.97;;
13592;SDS011;6867;50.998;4.250;2023-05-07T11:38:48;5.63;;;4.05;;
13592;SDS011;6867;50.998;4.250;2023-05-07T11:41:15;3.33;;;3.03;;
13592;SDS011;6867;50.998;4.250;2023-05-07T11:43:54;4.82;;;2.70;;
13592;SDS011;6867;50.998;4.250;2023-05-07T11:46:22;5.53;;;2.90;;
13592;SDS011;6867;50.998;4.250;2023-05-07T11:48:48;4.68;;;2.58;;
13592;SDS011;6867;50.998;4.250;2023-05-07T11:51:20;4.95;;;2.97;;
13592;SDS011;6867;50.998;4.250;2023-05-07T11:53:47;6.03;;;3.70;;
13592;SDS011;6867;50.998;4.250;2023-05-07T11:56:15;4.35;;;3.30;;
13592;SDS011;6867;50.998;4.250;2023-05-07T11:58:43;4.32;;;3.35;;
13592;SDS011;6867;50.998;4.250;2023-05-07T12:01:11;5.13;;;3.45;;
13592;SDS011;6867;50.998;4.250;2023-05-07T12:03:39;3.92;;;3.15;;
13592;SDS011;6867;50.998;4.250;2023-05-07T12:06:08;5.57;;;2.85;;
13592;SDS011;6867;50.998;4.250;2023-05-07T12:08:37;5.93;;;3.05;;
13592;SDS011;6867;50.998;4.250;2023-05-07T12:11:06;5.15;;;3.58;;
13592;SDS011;6867;50.998;4.250;2023-05-07T12:13:34;5.78;;;3.25;;
13592;SDS011;6867;50.998;4.250;2023-05-07T12:16:01;5.35;;;4.03;;
13592;SDS011;6867;50.998;4.250;2023-05-07T12:18:30;4.28;;;3.80;;
13592;SDS011;6867;50.998;4.250;2023-05-07T12:20:57;6.57;;;4.10;;
13592;SDS011;6867;50.998;4.250;2023-05-07T12:23:25;5.18;;;3.13;;
13592;SDS011;6867;50.998;4.250;2023-05-07T12:25:53;3.65;;;2.60;;
13592;SDS011;6867;50.998;4.250;2023-05-07T12:28:20;5.72;;;3.08;;
13592;SDS011;6867;50.998;4.250;2023-05-07T12:30:47;2.90;;;2.40;;
13592;SDS011;6867;50.998;4.250;2023-05-07T12:33:16;3.28;;;2.55;;
13592;SDS011;6867;50.998;4.250;2023-05-07T12:35:46;3.25;;;2.30;;
13592;SDS011;6867;50.998;4.250;2023-05-07T12:38:14;4.90;;;2.50;;
13592;SDS011;6867;50.998;4.250;2023-05-07T12:40:42;4.63;;;2.13;;
13592;SDS011;6867;50.998;4.250;2023-05-07T12:43:16;2.42;;;1.80;;
13592;SDS011;6867;50.998;4.250;2023-05-07T12:45:44;4.00;;;2.30;;
13592;SDS011;6867;50.998;4.250;2023-05-07T12:48:12;4.15;;;2.20;;
13592;SDS011;6867;50.998;4.250;2023-05-07T12:50:39;4.03;;;2.35;;
13592;SDS011;6867;50.998;4.250;2023-05-07T12:53:07;3.42;;;2.13;;
13592;SDS011;6867;50.998;4.250;2023-05-07T12:55:42;2.35;;;2.15;;
13592;SDS011;6867;50.998;4.250;2023-05-07T12:58:23;3.10;;;2.17;;
13592;SDS011;6867;50.998;4.250;2023-05-07T13:00:52;2.28;;;2.05;;
13592;SDS011;6867;50.998;4.250;2023-05-07T13:03:22;2.53;;;2.15;;
13592;SDS011;6867;50.998;4.250;2023-05-07T13:05:50;4.70;;;2.28;;
13592;SDS011;6867;50.998;4.250;2023-05-07T13:08:23;2.35;;;2.15;;
13592;SDS011;6867;50.998;4.250;2023-05-07T13:10:51;4.00;;;2.63;;
13592;SDS011;6867;50.998;4.250;2023-05-07T13:13:18;2.45;;;2.22;;
13592;SDS011;6867;50.998;4.250;2023-05-07T13:15:46;4.15;;;2.85;;
13592;SDS011;6867;50.998;4.250;2023-05-07T13:18:13;4.45;;;2.97;;
13592;SDS011;6867;50.998;4.250;2023-05-07T13:20:40;3.85;;;3.00;;
13592;SDS011;6867;50.998;4.250;2023-05-07T13:23:07;4.35;;;2.70;;
13592;SDS011;6867;50.998;4.250;2023-05-07T13:25:33;3.63;;;3.03;;
13592;SDS011;6867;50.998;4.250;2023-05-07T13:28:00;3.17;;;2.85;;
13592;SDS011;6867;50.998;4.250;2023-05-07T13:30:27;5.18;;;3.63;;
13592;SDS011;6867;50.998;4.250;2023-05-07T13:32:56;4.47;;;3.53;;
13592;SDS011;6867;50.998;4.250;2023-05-07T13:35:22;4.25;;;3.67;;
13592;SDS011;6867;50.998;4.250;2023-05-07T13:37:49;4.93;;;4.03;;
13592;SDS011;6867;50.998;4.250;2023-05-07T13:40:17;3.95;;;3.55;;
13592;SDS011;6867;50.998;4.250;2023-05-07T13:42:44;6.60;;;3.20;;
13592;SDS011;6867;50.998;4.250;2023-05-07T13:45:11;3.55;;;3.10;;
13592;SDS011;6867;50.998;4.250;2023-05-07T13:47:39;4.32;;;3.92;;
13592;SDS011;6867;50.998;4.250;2023-05-07T13:50:08;5.00;;;3.38;;
13592;SDS011;6867;50.998;4.250;2023-05-07T13:52:36;3.60;;;3.30;;
13592;SDS011;6867;50.998;4.250;2023-05-07T13:55:05;5.40;;;3.95;;
13592;SDS011;6867;50.998;4.250;2023-05-07T13:57:32;4.15;;;3.72;;
13592;SDS011;6867;50.998;4.250;2023-05-07T13:59:59;4.45;;;4.05;;
13592;SDS011;6867;50.998;4.250;2023-05-07T14:02:26;4.43;;;4.03;;
13592;SDS011;6867;50.998;4.250;2023-05-07T14:04:52;3.97;;;3.58;;
13592;SDS011;6867;50.998;4.250;2023-05-07T14:07:22;4.07;;;3.67;;
13592;SDS011;6867;50.998;4.250;2023-05-07T14:09:49;3.90;;;3.60;;
13592;SDS011;6867;50.998;4.250;2023-05-07T14:12:15;4.45;;;3.08;;
13592;SDS011;6867;50.998;4.250;2023-05-07T14:14:42;3.42;;;2.70;;
13592;SDS011;6867;50.998;4.250;2023-05-07T14:17:10;2.70;;;2.50;;
13592;SDS011;6867;50.998;4.250;2023-05-07T14:19:37;2.70;;;2.50;;
13592;SDS011;6867;50.998;4.250;2023-05-07T14:22:03;3.42;;;2.70;;
13592;SDS011;6867;50.998;4.250;2023-05-07T14:24:31;4.93;;;2.72;;
13592;SDS011;6867;50.998;4.250;2023-05-07T14:26:58;2.72;;;2.47;;
13592;SDS011;6867;50.998;4.250;2023-05-07T14:29:25;3.20;;;2.50;;
13592;SDS011;6867;50.998;4.250;2023-05-07T14:31:51;3.55;;;2.58;;
13592;SDS011;6867;50.998;4.250;2023-05-07T14:34:18;3.28;;;2.75;;
13592;SDS011;6867;50.998;4.250;2023-05-07T14:36:45;3.90;;;2.42;;
13592;SDS011;6867;50.998;4.250;2023-05-07T14:39:11;2.65;;;2.20;;
13592;SDS011;6867;50.998;4.250;2023-05-07T14:41:39;2.85;;;2.55;;
13592;SDS011;6867;50.998;4.250;2023-05-07T14:44:06;2.92;;;2.20;;
13592;SDS011;6867;50.998;4.250;2023-05-07T14:46:33;2.70;;;2.40;;
13592;SDS011;6867;50.998;4.250;2023-05-07T14:48:59;2.72;;;2.38;;
13592;SDS011;6867;50.998;4.250;2023-05-07T14:51:28;4.45;;;2.38;;
13592;SDS011;6867;50.998;4.250;2023-05-07T14:53:55;2.80;;;2.60;;
13592;SDS011;6867;50.998;4.250;2023-05-07T14:56:22;2.70;;;2.50;;
13592;SDS011;6867;50.998;4.250;2023-05-07T14:58:50;3.03;;;2.72;;
13592;SDS011;6867;50.998;4.250;2023-05-07T15:01:17;3.38;;;2.80;;
13592;SDS011;6867;50.998;4.250;2023-05-07T15:03:43;3.17;;;2.97;;
13592;SDS011;6867;50.998;4.250;2023-05-07T15:06:10;3.67;;;2.70;;
13592;SDS011;6867;50.998;4.250;2023-05-07T15:08:37;3.00;;;2.63;;